Time;durP1;ratioP1;P1;durP2;ratioP2;P2;SDS_P1;SDS_P2;PMS_P1;PMS_P2;Temp;Humidity;BMP_temperature;BMP_pressure;BME280_temperature;BME280_humidity;BME280_pressure;Samples;Min_cycle;Max_cycle;Signal;HPM_P1;HPM_P2
2021/07/11 00:01:38;;;;;;;1.43;0.70;;;16.20;99.90;;;;;;5014231;28;20545;-57
2021/07/11 00:04:05;;;;;;;1.33;1.13;;;16.20;99.90;;;;;;5032243;28;20468;-57
2021/07/11 00:06:36;;;;;;;1.37;0.80;;;16.20;99.90;;;;;;5033590;28;20503;-58
2021/07/11 00:09:05;;;;;;;1.63;1.30;;;16.30;99.90;;;;;;5033842;28;20938;-57
2021/07/11 00:11:32;;;;;;;1.30;0.70;;;16.20;99.90;;;;;;5033273;28;20452;-57
2021/07/11 00:14:01;;;;;;;1.13;1.00;;;16.10;99.90;;;;;;5033273;28;20480;-57
2021/07/11 00:16:29;;;;;;;3.03;1.03;;;16.00;99.90;;;;;;5033487;28;20507;-57
2021/07/11 00:18:57;;;;;;;3.10;0.80;;;16.10;99.90;;;;;;5033823;28;20448;-57
2021/07/11 00:21:24;;;;;;;0.90;0.70;;;16.20;99.90;;;;;;5033648;28;20452;-57
2021/07/11 00:23:51;;;;;;;0.70;0.70;;;16.30;99.90;;;;;;5032965;28;20464;-57
2021/07/11 00:26:19;;;;;;;0.80;0.60;;;16.20;99.90;;;;;;5033288;28;21008;-58
2021/07/11 00:28:46;;;;;;;0.70;0.60;;;16.10;99.90;;;;;;5033529;28;20954;-57
2021/07/11 00:31:13;;;;;;;0.90;0.73;;;16.10;99.90;;;;;;5033275;28;20449;-57
2021/07/11 00:33:40;;;;;;;0.90;0.70;;;16.10;99.90;;;;;;5032633;28;20477;-57
2021/07/11 00:36:07;;;;;;;1.57;0.80;;;16.10;99.90;;;;;;5032819;28;20448;-57
2021/07/11 00:38:35;;;;;;;0.70;0.70;;;16.10;99.90;;;;;;5033109;28;20445;-57
2021/07/11 00:41:02;;;;;;;0.70;0.63;;;16.00;99.90;;;;;;5032886;28;21003;-57
2021/07/11 00:43:30;;;;;;;0.90;0.63;;;15.90;99.90;;;;;;5032123;28;20530;-57
2021/07/11 00:45:57;;;;;;;0.77;0.77;;;15.80;99.90;;;;;;5032672;28;20942;-57
2021/07/11 00:48:24;;;;;;;0.80;0.70;;;15.80;99.90;;;;;;5033142;28;20507;-57
2021/07/11 00:50:51;;;;;;;1.83;0.80;;;15.80;99.90;;;;;;5026425;28;20649;-57
2021/07/11 00:53:18;;;;;;;1.40;0.90;;;15.80;99.90;;;;;;5023378;28;20473;-57
2021/07/11 00:55:45;;;;;;;1.13;0.93;;;15.80;99.90;;;;;;5032606;28;20534;-57
2021/07/11 00:58:12;;;;;;;0.70;0.70;;;15.90;99.90;;;;;;5032315;28;20499;-57
2021/07/11 01:00:46;;;;;;;1.13;0.70;;;15.80;99.90;;;;;;5032261;28;20452;-57
2021/07/11 01:03:22;;;;;;;1.00;0.90;;;15.70;99.90;;;;;;5012609;28;20473;-57
2021/07/11 01:05:49;;;;;;;1.27;1.10;;;15.80;99.90;;;;;;5032381;28;20924;-57
2021/07/11 01:08:19;;;;;;;0.80;0.80;;;15.80;99.90;;;;;;5032482;28;20453;-57
2021/07/11 01:10:48;;;;;;;0.70;0.70;;;15.70;99.90;;;;;;5032518;28;20543;-57
2021/07/11 01:13:18;;;;;;;1.03;0.93;;;15.70;99.90;;;;;;5031955;28;20904;-57
2021/07/11 01:15:51;;;;;;;1.33;0.87;;;15.70;99.90;;;;;;5032304;28;20490;-57
2021/07/11 01:18:20;;;;;;;0.90;0.90;;;15.60;99.90;;;;;;5032450;28;20992;-57
2021/07/11 01:20:50;;;;;;;1.23;1.00;;;15.70;99.90;;;;;;5031864;28;20461;-57
2021/07/11 01:23:28;;;;;;;1.13;0.90;;;15.60;99.90;;;;;;5032207;28;20511;-57
2021/07/11 01:25:57;;;;;;;2.07;1.00;;;15.60;99.90;;;;;;5028966;28;20452;-57
2021/07/11 01:28:25;;;;;;;0.70;0.70;;;15.70;99.90;;;;;;5032185;28;20456;-57
2021/07/11 01:30:54;;;;;;;1.17;1.07;;;15.70;99.90;;;;;;5031939;28;20452;-57
2021/07/11 01:33:23;;;;;;;1.03;0.93;;;15.70;99.90;;;;;;5031424;28;20473;-57
2021/07/11 01:35:51;;;;;;;3.30;0.97;;;15.80;99.90;;;;;;5032163;28;20485;-57
2021/07/11 01:38:19;;;;;;;0.80;0.80;;;15.80;99.90;;;;;;5032229;28;20497;-57
2021/07/11 01:40:49;;;;;;;0.80;0.70;;;15.80;99.90;;;;;;5031940;28;20444;-57
2021/07/11 01:43:20;;;;;;;8.43;4.03;;;15.80;99.90;;;;;;5051916;22;20502;-52
2021/07/11 01:45:49;;;;;;;3.77;2.27;;;15.70;99.90;;;;;;5031082;28;21003;-52
2021/07/11 01:48:16;;;;;;;2.70;1.40;;;15.80;99.90;;;;;;5031521;28;20448;-52
2021/07/11 01:50:44;;;;;;;1.63;0.83;;;15.70;99.90;;;;;;5024162;28;20445;-52
2021/07/11 01:53:12;;;;;;;0.60;0.60;;;15.60;99.90;;;;;;5031067;28;20485;-52
2021/07/11 01:55:39;;;;;;;1.43;0.70;;;15.60;99.90;;;;;;5031379;28;20554;-52
2021/07/11 01:58:06;;;;;;;0.70;0.60;;;15.70;99.90;;;;;;5031693;28;20453;-52
2021/07/11 02:00:34;;;;;;;0.60;0.60;;;15.70;99.90;;;;;;5031396;28;20453;-52
2021/07/11 02:03:01;;;;;;;0.70;0.60;;;15.60;99.90;;;;;;5021292;28;20445;-52
2021/07/11 02:05:28;;;;;;;2.67;0.80;;;15.50;99.90;;;;;;5031587;28;20449;-52
2021/07/11 02:07:55;;;;;;;1.90;0.70;;;15.60;99.90;;;;;;5031655;28;20518;-51
2021/07/11 02:10:22;;;;;;;0.77;0.70;;;15.70;99.90;;;;;;5031212;28;20578;-52
2021/07/11 02:12:54;;;;;;;0.60;0.60;;;15.80;99.90;;;;;;5031313;28;20448;-51
2021/07/11 02:15:29;;;;;;;0.70;0.70;;;15.80;99.90;;;;;;5031343;28;20483;-52
2021/07/11 02:17:58;;;;;;;0.90;0.70;;;15.90;99.90;;;;;;5031548;28;20471;-51
2021/07/11 02:20:28;;;;;;;0.80;0.60;;;15.90;99.90;;;;;;5031432;28;20457;-52
2021/07/11 02:22:57;;;;;;;1.37;0.70;;;15.90;99.90;;;;;;5031200;28;20706;-52
2021/07/11 02:25:24;;;;;;;1.00;0.77;;;15.90;99.90;;;;;;5031509;28;20993;-52
2021/07/11 02:27:52;;;;;;;0.90;0.90;;;15.90;99.90;;;;;;5027064;28;20449;-52
2021/07/11 02:30:24;;;;;;;0.93;0.80;;;15.90;99.90;;;;;;5031180;28;20456;-52
2021/07/11 02:32:52;;;;;;;3.30;0.90;;;15.90;99.90;;;;;;5030520;28;20461;-52
2021/07/11 02:35:28;;;;;;;1.63;0.80;;;15.80;99.90;;;;;;5011498;28;20487;-52
2021/07/11 02:37:55;;;;;;;0.80;0.80;;;15.80;99.90;;;;;;5011893;28;20457;-52
2021/07/11 02:40:22;;;;;;;1.40;1.10;;;15.80;99.90;;;;;;5011457;28;20457;-52
2021/07/11 02:42:54;;;;;;;0.93;0.83;;;15.90;99.90;;;;;;5029362;28;20499;-52
2021/07/11 02:45:22;;;;;;;1.67;0.87;;;16.00;99.90;;;;;;5031131;28;20449;-52
2021/07/11 02:47:50;;;;;;;0.90;0.90;;;16.00;99.90;;;;;;5031106;28;20464;-51
2021/07/11 02:50:19;;;;;;;3.33;1.07;;;16.00;99.90;;;;;;5031392;28;20514;-52
2021/07/11 02:52:46;;;;;;;0.80;0.70;;;16.00;99.90;;;;;;5030583;28;20496;-52
2021/07/11 02:55:17;;;;;;;3.70;1.10;;;16.00;99.90;;;;;;5030404;28;20484;-52
2021/07/11 02:57:51;;;;;;;1.10;1.00;;;16.00;99.90;;;;;;5031238;28;20510;-52
2021/07/11 03:00:18;;;;;;;0.80;0.80;;;16.00;99.90;;;;;;5030750;28;21064;-52
2021/07/11 03:02:45;;;;;;;1.10;0.70;;;16.00;99.90;;;;;;5030691;28;20453;-52
2021/07/11 03:05:19;;;;;;;0.97;0.93;;;16.00;99.90;;;;;;5030970;28;20903;-52
2021/07/11 03:07:47;;;;;;;2.50;0.70;;;16.00;99.90;;;;;;5031242;28;20455;-52
2021/07/11 03:10:15;;;;;;;0.80;0.73;;;16.00;99.90;;;;;;5031133;28;20494;-52
2021/07/11 03:12:43;;;;;;;1.63;0.70;;;16.00;99.90;;;;;;5031516;28;20456;-52
2021/07/11 03:15:12;;;;;;;1.00;0.80;;;15.90;99.90;;;;;;5034488;28;20484;-52
2021/07/11 03:17:41;;;;;;;0.70;0.70;;;15.90;99.90;;;;;;5034418;28;20457;-52
2021/07/11 03:20:09;;;;;;;1.07;0.73;;;16.00;99.90;;;;;;5034694;28;20456;-52
2021/07/11 03:22:38;;;;;;;1.37;1.13;;;15.80;99.90;;;;;;5034111;28;20510;-52
2021/07/11 03:25:09;;;;;;;0.60;0.60;;;15.80;99.90;;;;;;5034379;28;20534;-52
2021/07/11 03:27:37;;;;;;;1.37;0.70;;;15.90;99.90;;;;;;5034369;28;20475;-52
2021/07/11 03:30:09;;;;;;;1.10;0.70;;;15.90;99.90;;;;;;5014587;28;20512;-52
2021/07/11 03:32:40;;;;;;;1.00;1.00;;;15.90;99.90;;;;;;5026868;28;20508;-52
2021/07/11 03:35:09;;;;;;;2.90;0.90;;;15.90;99.90;;;;;;5034120;28;20479;-52
2021/07/11 03:37:41;;;;;;;1.20;1.10;;;15.90;99.90;;;;;;5034187;28;20510;-52
2021/07/11 03:40:11;;;;;;;0.90;0.80;;;15.90;99.90;;;;;;5024879;28;20471;-52
2021/07/11 03:42:41;;;;;;;1.10;0.97;;;15.90;99.90;;;;;;5033586;28;20906;-52
2021/07/11 03:45:11;;;;;;;2.43;0.90;;;16.00;99.90;;;;;;5034065;28;20900;-52
2021/07/11 03:47:42;;;;;;;0.90;0.80;;;16.00;99.90;;;;;;5034082;28;20444;-52
2021/07/11 03:50:11;;;;;;;0.80;0.80;;;16.00;99.90;;;;;;5033417;28;20471;-52
2021/07/11 03:52:44;;;;;;;0.70;0.67;;;16.10;99.90;;;;;;5033550;28;20453;-52
2021/07/11 03:55:14;;;;;;;1.10;1.00;;;16.10;99.90;;;;;;5033804;28;20535;-52
2021/07/11 03:57:43;;;;;;;0.93;0.87;;;16.10;99.90;;;;;;5033670;28;20445;-52
2021/07/11 04:00:11;;;;;;;1.23;1.13;;;16.00;99.90;;;;;;5033498;28;20965;-52
2021/07/11 04:02:41;;;;;;;1.10;1.00;;;16.00;99.90;;;;;;5033325;28;20456;-52
2021/07/11 04:05:10;;;;;;;1.73;1.10;;;16.00;99.90;;;;;;5033240;28;20884;-52
2021/07/11 04:07:37;;;;;;;1.00;0.90;;;15.90;99.90;;;;;;5033879;28;20448;-52
2021/07/11 04:10:06;;;;;;;1.00;0.80;;;16.00;99.90;;;;;;5033348;28;20449;-52
2021/07/11 04:12:35;;;;;;;1.67;1.00;;;16.00;99.90;;;;;;5033364;28;20494;-52
2021/07/11 04:15:02;;;;;;;1.10;0.90;;;16.00;99.90;;;;;;5032306;28;20476;-52
2021/07/11 04:17:30;;;;;;;2.00;1.00;;;16.10;99.90;;;;;;5030076;28;20457;-52
2021/07/11 04:20:01;;;;;;;2.27;1.30;;;16.10;99.90;;;;;;5031980;28;20824;-52
2021/07/11 04:22:29;;;;;;;1.20;1.10;;;16.10;99.90;;;;;;5023534;28;20885;-52
2021/07/11 04:24:56;;;;;;;1.30;1.20;;;16.10;99.90;;;;;;5029467;28;20527;-52
2021/07/11 04:27:26;;;;;;;1.23;1.13;;;16.10;99.90;;;;;;5033388;28;20456;-52
2021/07/11 04:29:55;;;;;;;2.70;1.23;;;16.10;99.90;;;;;;5032743;28;20864;-52
2021/07/11 04:32:22;;;;;;;1.47;1.00;;;16.10;99.90;;;;;;5032742;28;20480;-51
2021/07/11 04:34:49;;;;;;;2.87;1.10;;;16.10;99.90;;;;;;5033294;28;20468;-52
2021/07/11 04:37:16;;;;;;;3.73;1.10;;;16.10;99.90;;;;;;5033085;28;20484;-52
2021/07/11 04:39:43;;;;;;;3.33;1.00;;;16.00;99.90;;;;;;5032397;28;20880;-52
2021/07/11 04:42:11;;;;;;;1.23;0.90;;;16.00;99.90;;;;;;5032350;28;20494;-52
2021/07/11 04:44:41;;;;;;;1.20;1.10;;;16.00;99.90;;;;;;5032824;28;20476;-52
2021/07/11 04:47:10;;;;;;;1.27;1.00;;;16.20;99.90;;;;;;5033151;28;21116;-52
2021/07/11 04:49:37;;;;;;;1.00;0.90;;;16.20;99.90;;;;;;5032677;28;20448;-52
2021/07/11 04:52:05;;;;;;;3.90;1.00;;;16.20;99.90;;;;;;5032287;28;20452;-51
2021/07/11 04:54:34;;;;;;;1.40;1.10;;;16.30;99.90;;;;;;5032754;28;20974;-52
2021/07/11 04:57:01;;;;;;;1.30;1.20;;;16.40;99.90;;;;;;5032549;28;20575;-51
2021/07/11 04:59:32;;;;;;;1.13;1.03;;;16.50;99.90;;;;;;5026286;28;20527;-52
2021/07/11 05:05:34;;;;;;;2.40;1.27;;;16.40;99.90;;;;;;5019647;28;20436;-52
2021/07/11 05:08:01;;;;;;;4.77;1.73;;;16.40;99.90;;;;;;5031403;28;20472;-52
2021/07/11 05:10:28;;;;;;;2.30;1.00;;;16.50;99.90;;;;;;5030511;28;20503;-52
2021/07/11 05:12:56;;;;;;;2.03;1.03;;;16.50;99.90;;;;;;5031261;28;20502;-52
2021/07/11 05:15:23;;;;;;;2.10;1.40;;;16.50;99.90;;;;;;5028432;28;20507;-52
2021/07/11 05:17:50;;;;;;;1.60;1.13;;;16.50;99.90;;;;;;5030678;28;20457;-51
2021/07/11 05:20:17;;;;;;;1.30;1.20;;;16.60;99.90;;;;;;5031275;28;20449;-52
2021/07/11 05:22:45;;;;;;;2.23;1.20;;;16.60;99.90;;;;;;5031383;28;20946;-52
2021/07/11 05:25:12;;;;;;;1.20;1.10;;;16.70;99.90;;;;;;5031977;28;20538;-52
2021/07/11 05:27:40;;;;;;;1.70;1.27;;;16.70;99.90;;;;;;5031657;28;20942;-51
2021/07/11 05:30:08;;;;;;;1.87;1.30;;;16.70;99.90;;;;;;5023586;28;20518;-52
2021/07/11 05:32:35;;;;;;;1.30;1.13;;;16.70;99.90;;;;;;5026588;28;21065;-53
2021/07/11 05:35:03;;;;;;;2.20;1.00;;;16.60;99.90;;;;;;5021361;28;20521;-52
2021/07/11 05:37:30;;;;;;;1.00;1.00;;;16.50;99.90;;;;;;5028427;28;20512;-51
2021/07/11 05:40:00;;;;;;;1.43;1.00;;;16.50;99.90;;;;;;5030685;28;20453;-51
2021/07/11 05:42:27;;;;;;;2.30;1.10;;;16.40;99.90;;;;;;5031506;28;20449;-51
2021/07/11 05:44:54;;;;;;;0.80;0.80;;;16.40;99.90;;;;;;5031410;28;20476;-51
2021/07/11 05:47:21;;;;;;;1.20;1.10;;;16.40;99.90;;;;;;5031527;28;20444;-51
2021/07/11 05:49:48;;;;;;;0.90;0.90;;;16.30;99.90;;;;;;5013839;28;20457;-51
2021/07/11 05:52:15;;;;;;;0.90;0.90;;;16.20;99.90;;;;;;5031424;28;20957;-51
2021/07/11 05:54:42;;;;;;;1.80;0.80;;;16.10;99.90;;;;;;5031381;28;20519;-51
2021/07/11 05:57:10;;;;;;;2.73;0.80;;;16.10;99.90;;;;;;5031249;28;20530;-52
2021/07/11 05:59:37;;;;;;;1.80;0.80;;;16.10;99.90;;;;;;5031529;28;20510;-52
2021/07/11 06:02:05;;;;;;;1.37;0.90;;;16.10;99.90;;;;;;5030518;28;20448;-51
2021/07/11 06:04:32;;;;;;;2.53;1.30;;;16.20;99.90;;;;;;5031015;28;20477;-52
2021/07/11 06:06:59;;;;;;;0.90;0.90;;;16.20;99.90;;;;;;5031744;28;20859;-52
2021/07/11 06:09:26;;;;;;;1.10;1.00;;;16.30;99.90;;;;;;5031205;28;20487;-52
2021/07/11 06:11:53;;;;;;;2.90;1.00;;;16.30;99.90;;;;;;5031095;28;20452;-51
2021/07/11 06:17:43;;;;;;;2.63;1.10;;;16.40;99.90;;;;;;5031066;28;20475;-52
2021/07/11 06:20:12;;;;;;;1.57;1.00;;;16.40;99.90;;;;;;5029137;28;20503;-51
2021/07/11 06:22:40;;;;;;;1.30;1.20;;;16.50;99.90;;;;;;5031099;28;20506;-52
2021/07/11 06:25:09;;;;;;;1.00;1.00;;;16.40;99.90;;;;;;5021980;28;20499;-52
2021/07/11 06:27:37;;;;;;;1.00;0.90;;;16.40;99.90;;;;;;5011590;28;20496;-52
2021/07/11 06:30:06;;;;;;;1.33;1.00;;;16.30;99.90;;;;;;5029313;28;20457;-52
2021/07/11 06:32:33;;;;;;;1.00;0.90;;;16.30;99.90;;;;;;5030966;28;20453;-51
2021/07/11 06:35:01;;;;;;;1.77;0.83;;;16.30;99.90;;;;;;5030820;28;20893;-50
2021/07/11 06:37:28;;;;;;;2.87;1.10;;;16.40;99.90;;;;;;5031305;28;20480;-51
2021/07/11 06:39:55;;;;;;;2.40;0.93;;;16.60;99.90;;;;;;5030986;28;20445;-51
2021/07/11 06:42:22;;;;;;;1.17;1.07;;;16.70;99.90;;;;;;5030847;28;20875;-51
2021/07/11 06:44:49;;;;;;;0.73;0.73;;;16.80;99.90;;;;;;5030700;28;21160;-52
2021/07/11 06:47:16;;;;;;;1.77;1.20;;;16.90;99.90;;;;;;5031244;28;20448;-51
2021/07/11 06:49:43;;;;;;;1.20;1.10;;;17.10;99.90;;;;;;5033956;28;20459;-51
2021/07/11 06:52:12;;;;;;;1.67;1.50;;;17.30;99.90;;;;;;5034382;28;20899;-51
2021/07/11 06:54:39;;;;;;;1.37;0.90;;;17.30;99.90;;;;;;5034247;28;20473;-51
2021/07/11 06:57:06;;;;;;;1.87;1.20;;;17.50;99.90;;;;;;5034882;28;20745;-51
2021/07/11 06:59:33;;;;;;;1.10;1.00;;;17.80;99.90;;;;;;5034205;28;20457;-50
2021/07/11 07:02:03;;;;;;;1.10;1.00;;;17.80;99.90;;;;;;5033082;28;20448;-51
2021/07/11 07:04:30;;;;;;;3.33;1.27;;;18.10;99.90;;;;;;5023577;28;20518;-51
2021/07/11 07:07:03;;;;;;;1.33;1.10;;;18.40;99.90;;;;;;5032599;28;20454;-51
2021/07/11 07:09:32;;;;;;;1.10;1.00;;;18.60;99.90;;;;;;5034032;28;20456;-55
2021/07/11 07:12:01;;;;;;;2.07;0.77;;;18.60;99.90;;;;;;5034425;28;20457;-54
2021/07/11 07:14:28;;;;;;;1.37;1.00;;;18.90;99.90;;;;;;5029553;28;20520;-54
2021/07/11 07:16:55;;;;;;;1.47;1.00;;;19.30;99.90;;;;;;5018615;28;20480;-52
2021/07/11 07:19:22;;;;;;;1.00;0.90;;;20.00;99.90;;;;;;5026241;28;20507;-51
2021/07/11 07:21:51;;;;;;;1.27;0.77;;;21.10;99.90;;;;;;5028378;28;20954;-55
2021/07/11 07:24:19;;;;;;;0.70;0.60;;;22.40;99.90;;;;;;5031747;28;20473;-52
2021/07/11 07:26:50;;;;;;;1.33;0.70;;;23.20;99.90;;;;;;5033167;28;20879;-51
2021/07/11 07:29:17;;;;;;;0.90;0.90;;;24.20;99.90;;;;;;5033906;28;20456;-51
2021/07/11 07:31:47;;;;;;;1.10;1.00;;;24.70;99.90;;;;;;5034188;28;20479;-51
2021/07/11 07:34:14;;;;;;;0.70;0.70;;;24.80;99.90;;;;;;5033848;28;20483;-50
2021/07/11 07:36:41;;;;;;;1.17;0.80;;;24.90;99.90;;;;;;5033616;28;20480;-53
2021/07/11 07:39:08;;;;;;;1.47;0.60;;;25.30;99.90;;;;;;5026351;28;20503;-50
2021/07/11 07:41:36;;;;;;;0.80;0.70;;;25.00;99.90;;;;;;5020231;28;20515;-52
2021/07/11 07:44:05;;;;;;;0.70;0.70;;;24.80;99.90;;;;;;5033741;28;20551;-51
2021/07/11 07:46:32;;;;;;;0.97;0.80;;;25.20;99.90;;;;;;5033379;28;20503;-51
2021/07/11 07:48:59;;;;;;;0.83;0.70;;;24.90;99.90;;;;;;5033705;28;20452;-51
2021/07/11 07:51:26;;;;;;;3.60;0.93;;;25.30;99.90;;;;;;5031585;28;20445;-51
2021/07/11 07:53:54;;;;;;;3.40;0.80;;;25.70;99.90;;;;;;5020755;28;20476;-49
2021/07/11 07:56:20;;;;;;;0.83;0.70;;;25.90;99.90;;;;;;5033234;28;20851;-50
2021/07/11 07:58:48;;;;;;;0.87;0.63;;;25.90;99.90;;;;;;5026564;28;20942;-51
2021/07/11 08:01:17;;;;;;;1.87;0.80;;;26.10;99.90;;;;;;5046211;22;20501;-59
2021/07/11 08:03:43;;;;;;;0.80;0.70;;;26.00;99.90;;;;;;5006555;28;20522;-60
2021/07/11 08:06:10;;;;;;;0.90;0.83;;;26.40;99.90;;;;;;4994282;28;20442;-59
2021/07/11 08:08:37;;;;;;;1.77;1.00;;;26.40;99.90;;;;;;4998198;28;20940;-59
2021/07/11 08:11:07;;;;;;;0.70;0.70;;;27.00;99.90;;;;;;5013601;28;20814;-60
2021/07/11 08:13:34;;;;;;;1.50;1.00;;;27.50;99.90;;;;;;5013301;28;20536;-59
2021/07/11 08:16:01;;;;;;;1.10;0.73;;;27.70;99.90;;;;;;5012823;28;20858;-59
2021/07/11 08:18:29;;;;;;;0.77;0.77;;;27.60;99.90;;;;;;5012735;28;20512;-59
2021/07/11 08:20:56;;;;;;;0.60;0.60;;;27.60;99.90;;;;;;5012913;28;20453;-60
2021/07/11 08:23:23;;;;;;;0.60;0.60;;;27.60;99.90;;;;;;5013057;28;20450;-60
2021/07/11 08:25:50;;;;;;;1.00;0.90;;;27.90;99.90;;;;;;5012976;28;20867;-59
2021/07/11 08:28:17;;;;;;;1.10;0.80;;;27.70;99.90;;;;;;5013056;28;20441;-60
2021/07/11 08:30:45;;;;;;;1.67;0.60;;;27.40;99.90;;;;;;5012503;28;20954;-59
2021/07/11 08:33:12;;;;;;;2.00;0.80;;;27.40;99.90;;;;;;5012109;28;20449;-60
2021/07/11 08:35:41;;;;;;;0.87;0.60;;;26.80;99.90;;;;;;5011804;28;20511;-59
2021/07/11 08:38:08;;;;;;;0.70;0.70;;;26.80;99.90;;;;;;5013002;28;20485;-59
2021/07/11 08:40:36;;;;;;;0.77;0.77;;;26.60;99.90;;;;;;5012557;28;20519;-59
2021/07/11 08:43:06;;;;;;;2.50;0.77;;;26.80;99.90;;;;;;5012243;28;20886;-59
2021/07/11 08:45:34;;;;;;;0.80;0.73;;;27.10;99.90;;;;;;5013297;28;20457;-59
2021/07/11 08:48:02;;;;;;;0.80;0.80;;;27.90;99.90;;;;;;5012769;28;20449;-60
2021/07/11 08:50:33;;;;;;;1.67;1.00;;;28.10;99.90;;;;;;5011955;28;20496;-60
2021/07/11 08:53:02;;;;;;;1.27;0.90;;;27.70;99.90;;;;;;4993066;28;20477;-60
2021/07/11 08:55:29;;;;;;;1.03;0.93;;;26.50;99.90;;;;;;5011538;28;20515;-60
2021/07/11 08:57:58;;;;;;;0.80;0.80;;;25.30;99.90;;;;;;5012940;28;20699;-60
2021/07/11 09:00:29;;;;;;;1.00;0.90;;;24.80;99.90;;;;;;5012642;28;20461;-60
2021/07/11 09:02:56;;;;;;;1.20;1.10;;;24.60;99.90;;;;;;5012622;28;21065;-60
2021/07/11 09:05:25;;;;;;;0.90;0.90;;;23.90;99.90;;;;;;5012250;28;20515;-61
2021/07/11 09:08:05;;;;;;;1.07;0.97;;;24.10;99.90;;;;;;5012403;28;20520;-60
2021/07/11 09:10:35;;;;;;;1.83;0.93;;;23.90;99.90;;;;;;5012187;28;20512;-59
2021/07/11 09:13:03;;;;;;;1.57;1.00;;;23.90;99.90;;;;;;5011096;28;20521;-59
2021/07/11 09:15:32;;;;;;;1.83;0.97;;;24.10;99.90;;;;;;5011892;28;20454;-59
2021/07/11 09:17:59;;;;;;;1.67;0.80;;;24.40;99.90;;;;;;5012356;28;20539;-59
2021/07/11 09:20:27;;;;;;;1.43;0.90;;;24.90;99.90;;;;;;5012720;28;20503;-59
2021/07/11 09:22:58;;;;;;;0.77;0.73;;;25.00;99.90;;;;;;5011470;28;20520;-59
2021/07/11 09:25:28;;;;;;;1.30;1.20;;;25.50;99.90;;;;;;5012332;28;20449;-59
2021/07/11 09:27:55;;;;;;;1.30;1.20;;;24.60;99.90;;;;;;5011804;28;20453;-57
2021/07/11 09:30:22;;;;;;;1.53;1.30;;;23.40;99.90;;;;;;5012067;28;20504;-57
2021/07/11 09:32:53;;;;;;;1.47;1.20;;;22.40;99.90;;;;;;5011971;28;20975;-60
2021/07/11 09:35:23;;;;;;;1.73;1.50;;;22.10;99.90;;;;;;5012370;28;20453;-58
2021/07/11 09:37:55;;;;;;;3.33;1.10;;;23.00;99.90;;;;;;5011399;28;20512;-59
2021/07/11 09:40:24;;;;;;;1.73;1.33;;;23.30;99.90;;;;;;5001489;28;20496;-59
2021/07/11 09:42:55;;;;;;;1.87;1.37;;;23.10;99.90;;;;;;5011681;28;20547;-58
2021/07/11 09:45:25;;;;;;;1.50;1.40;;;23.30;99.90;;;;;;5011211;28;20461;-59
2021/07/11 09:47:55;;;;;;;1.73;1.20;;;23.80;99.90;;;;;;5001812;28;20509;-58
2021/07/11 09:50:24;;;;;;;1.37;1.27;;;23.80;99.90;;;;;;5012166;28;20453;-58
2021/07/11 09:52:52;;;;;;;1.70;1.60;;;24.40;99.90;;;;;;5006818;28;20513;-58
2021/07/11 09:55:20;;;;;;;1.40;1.30;;;25.30;99.90;;;;;;4991703;28;20454;-59
2021/07/11 09:57:50;;;;;;;1.50;1.40;;;24.80;99.90;;;;;;5007725;28;20477;-59
2021/07/11 10:00:23;;;;;;;2.00;1.43;;;24.80;99.90;;;;;;5011813;28;20504;-59
2021/07/11 10:02:52;;;;;;;1.73;1.63;;;24.30;99.90;;;;;;5011190;28;20531;-59
2021/07/11 10:05:20;;;;;;;2.70;2.10;;;24.60;99.90;;;;;;4997435;28;20538;-59
2021/07/11 10:07:48;;;;;;;1.90;1.80;;;24.30;99.90;;;;;;5007528;28;20497;-58
2021/07/11 10:10:17;;;;;;;1.50;1.40;;;24.40;99.90;;;;;;5011679;28;20454;-59
2021/07/11 10:12:44;;;;;;;1.40;1.30;;;24.50;99.90;;;;;;5011336;28;20477;-58
2021/07/11 10:15:14;;;;;;;2.03;1.60;;;24.20;99.90;;;;;;5011655;28;20488;-59
2021/07/11 10:17:47;;;;;;;2.00;1.53;;;23.30;99.90;;;;;;5011363;28;20513;-59
2021/07/11 10:20:16;;;;;;;2.37;1.60;;;22.60;99.90;;;;;;5011820;28;20456;-58
2021/07/11 10:22:46;;;;;;;1.73;1.63;;;22.20;99.90;;;;;;5012649;28;20469;-58
2021/07/11 10:25:15;;;;;;;2.30;1.73;;;22.60;99.90;;;;;;5015544;28;20507;-58
2021/07/11 10:27:43;;;;;;;1.87;1.73;;;23.60;99.90;;;;;;5014799;28;20492;-59
2021/07/11 10:30:11;;;;;;;2.60;2.40;;;23.40;99.90;;;;;;5015793;28;20524;-58
2021/07/11 10:32:38;;;;;;;1.93;1.83;;;22.60;99.90;;;;;;5014987;28;20477;-58
2021/07/11 10:35:16;;;;;;;2.20;2.10;;;21.90;99.90;;;;;;5015534;28;21017;-59
2021/07/11 10:37:45;;;;;;;4.90;2.50;;;21.70;99.90;;;;;;5014599;28;20572;-58
2021/07/11 10:40:15;;;;;;;2.20;2.10;;;21.50;99.90;;;;;;5014783;28;21015;-58
2021/07/11 10:42:42;;;;;;;2.47;2.27;;;21.60;99.90;;;;;;5014833;28;20481;-58
2021/07/11 10:45:12;;;;;;;1.83;1.73;;;21.60;99.90;;;;;;5013776;28;20832;-58
2021/07/11 10:47:40;;;;;;;1.80;1.70;;;21.90;99.90;;;;;;5014683;28;20496;-59
2021/07/11 10:50:21;;;;;;;2.37;2.00;;;22.10;99.90;;;;;;5014371;28;21020;-58
2021/07/11 10:52:50;;;;;;;2.23;1.77;;;21.90;99.90;;;;;;5013624;28;20556;-59
2021/07/11 10:55:18;;;;;;;2.13;2.00;;;21.80;99.90;;;;;;5015109;28;20508;-58
2021/07/11 10:57:45;;;;;;;2.10;1.80;;;21.90;99.90;;;;;;5015381;28;20481;-59
2021/07/11 11:00:16;;;;;;;2.90;2.17;;;21.80;99.90;;;;;;5014263;28;20856;-59
2021/07/11 11:02:45;;;;;;;2.30;2.10;;;21.80;99.90;;;;;;5014186;28;20482;-59
2021/07/11 11:05:16;;;;;;;2.00;1.80;;;21.60;99.90;;;;;;5014479;28;20540;-59
2021/07/11 11:07:49;;;;;;;1.90;1.80;;;21.60;99.90;;;;;;5014744;28;20445;-58
2021/07/11 11:10:29;;;;;;;1.90;1.70;;;21.70;99.90;;;;;;5014287;28;20511;-59
2021/07/11 11:13:05;;;;;;;1.90;1.80;;;22.00;99.90;;;;;;5004418;28;20477;-59
2021/07/11 11:15:37;;;;;;;2.30;2.10;;;22.80;99.90;;;;;;5014004;28;21180;-58
2021/07/11 11:18:15;;;;;;;2.60;2.00;;;22.80;99.90;;;;;;5011774;28;20540;-58
2021/07/11 11:20:42;;;;;;;2.60;2.20;;;23.10;99.90;;;;;;5005346;28;20918;-59
2021/07/11 11:23:11;;;;;;;2.20;2.00;;;23.10;99.90;;;;;;4999659;28;20485;-58
2021/07/11 11:25:44;;;;;;;3.33;2.00;;;23.20;99.90;;;;;;5014895;28;20449;-59
2021/07/11 11:28:11;;;;;;;2.60;2.40;;;23.10;99.90;;;;;;5014432;28;20536;-58
2021/07/11 11:30:39;;;;;;;2.40;2.20;;;23.10;99.90;;;;;;5013298;28;21016;-59
2021/07/11 11:33:06;;;;;;;2.30;2.13;;;23.40;99.90;;;;;;5013596;28;20453;-60
2021/07/11 11:35:36;;;;;;;2.80;2.13;;;23.60;99.90;;;;;;5009939;28;20949;-59
2021/07/11 11:38:05;;;;;;;3.20;2.00;;;23.50;99.90;;;;;;5004935;28;20886;-60
2021/07/11 11:40:35;;;;;;;2.40;2.20;;;23.40;99.90;;;;;;5013513;28;20460;-59
2021/07/11 11:43:06;;;;;;;2.40;2.20;;;23.50;99.90;;;;;;5014045;28;20477;-59
2021/07/11 11:45:35;;;;;;;3.23;2.33;;;23.70;99.90;;;;;;5011076;28;20462;-59
2021/07/11 11:48:05;;;;;;;4.80;1.90;;;23.60;99.90;;;;;;4994476;28;20454;-58
2021/07/11 11:50:34;;;;;;;3.33;2.90;;;23.60;99.90;;;;;;5003719;28;20511;-58
2021/07/11 11:53:06;;;;;;;2.67;2.10;;;23.50;99.90;;;;;;5010862;28;20474;-58
2021/07/11 11:55:35;;;;;;;2.90;2.03;;;23.80;99.90;;;;;;5013922;28;20541;-58
2021/07/11 11:58:06;;;;;;;3.10;2.23;;;23.70;99.90;;;;;;5005345;28;20478;-58
2021/07/11 12:00:33;;;;;;;3.27;2.13;;;23.70;99.90;;;;;;5003461;28;20457;-58
2021/07/11 12:03:02;;;;;;;2.20;2.10;;;23.90;99.90;;;;;;5013663;28;20512;-58
2021/07/11 12:05:31;;;;;;;2.30;2.10;;;23.70;99.90;;;;;;5001356;28;20458;-59
2021/07/11 12:07:59;;;;;;;2.10;1.90;;;23.50;99.90;;;;;;4994854;28;20450;-58
2021/07/11 12:10:27;;;;;;;2.10;2.00;;;23.60;99.90;;;;;;5013389;28;20456;-59
2021/07/11 12:12:56;;;;;;;3.47;2.23;;;23.60;99.90;;;;;;5013402;28;21058;-59
2021/07/11 12:15:36;;;;;;;2.43;2.23;;;23.90;99.90;;;;;;5012632;28;20466;-58
2021/07/11 12:18:11;;;;;;;2.03;1.93;;;24.20;99.90;;;;;;5013710;28;20994;-59
2021/07/11 12:20:39;;;;;;;2.20;2.00;;;24.20;99.90;;;;;;5013522;28;20671;-58
2021/07/11 12:23:11;;;;;;;2.50;2.30;;;23.70;99.90;;;;;;5013371;28;20453;-59
2021/07/11 12:25:40;;;;;;;2.00;1.90;;;23.70;99.90;;;;;;5013162;28;20516;-58
2021/07/11 12:28:08;;;;;;;2.43;2.20;;;24.00;99.90;;;;;;5013675;28;20453;-58
2021/07/11 12:30:41;;;;;;;2.00;1.90;;;24.10;99.90;;;;;;5013316;28;20457;-59
2021/07/11 12:33:09;;;;;;;2.37;2.17;;;24.00;99.90;;;;;;5013137;28;20449;-58
2021/07/11 12:35:47;;;;;;;2.67;2.10;;;24.00;99.90;;;;;;5013096;28;20465;-59
2021/07/11 12:38:14;;;;;;;2.33;2.13;;;23.60;99.90;;;;;;5013342;28;20473;-58
2021/07/11 12:40:43;;;;;;;2.30;2.10;;;23.70;99.90;;;;;;5012678;28;21024;-58
2021/07/11 12:43:17;;;;;;;2.80;2.00;;;24.00;99.90;;;;;;5013289;28;20458;-59
2021/07/11 12:45:57;;;;;;;2.13;2.00;;;24.10;99.90;;;;;;5012725;28;20453;-58
2021/07/11 12:48:35;;;;;;;2.20;2.00;;;24.20;99.90;;;;;;4993692;28;20541;-58
2021/07/11 12:51:12;;;;;;;2.60;2.40;;;24.60;99.90;;;;;;5007592;28;21057;-58
2021/07/11 12:53:40;;;;;;;2.33;2.20;;;24.20;99.90;;;;;;5010898;28;20453;-58
2021/07/11 12:56:07;;;;;;;2.20;2.00;;;23.90;99.90;;;;;;5013224;28;20952;-59
2021/07/11 12:58:37;;;;;;;2.03;1.93;;;23.70;99.90;;;;;;5002435;28;20508;-59
2021/07/11 13:01:06;;;;;;;2.90;1.93;;;23.20;99.90;;;;;;5012349;28;20531;-58
2021/07/11 13:03:33;;;;;;;2.83;2.30;;;23.20;99.90;;;;;;5012455;28;20535;-59